createdAt,value
2023-03-17T00:00:01.356Z,101774.84
2023-03-17T00:05:46.329Z,101774.91
2023-03-17T00:11:10.472Z,101779.41
2023-03-17T00:16:36.050Z,101779.48
2023-03-17T00:21:58.395Z,101782.19
2023-03-17T00:27:22.383Z,101778.75
2023-03-17T00:32:46.137Z,101764.69
2023-03-17T00:38:11.232Z,101749.77
2023-03-17T00:43:33.757Z,101743.68
2023-03-17T00:48:57.084Z,101741.87
2023-03-17T00:54:19.958Z,101742.63
2023-03-17T00:59:46.392Z,101745.37
2023-03-17T01:05:08.737Z,101751.66
2023-03-17T01:10:35.106Z,101751.75
2023-03-17T01:15:59.785Z,101749.06
2023-03-17T01:21:22.924Z,101752.48
2023-03-17T01:26:45.484Z,101749.03
2023-03-17T01:32:08.369Z,101744.66
2023-03-17T01:37:30.868Z,101741.98
2023-03-17T01:42:56.994Z,101746.43
2023-03-17T01:48:19.815Z,101735.03
2023-03-17T01:53:42.603Z,101726.13
2023-03-17T01:59:08.026Z,101725.19
2023-03-17T02:04:32.135Z,101713.67
2023-03-17T02:09:54.632Z,101712.86
2023-03-17T02:15:17.841Z,101703.05
2023-03-17T02:20:47.905Z,101697.60
2023-03-17T02:26:11.960Z,101682.61
2023-03-17T02:31:35.964Z,101670.27
2023-03-17T02:36:59.153Z,101693.15
2023-03-17T02:42:22.272Z,101687.86
2023-03-17T02:47:45.294Z,101702.77
2023-03-17T02:53:08.546Z,101698.33
2023-03-17T02:58:30.786Z,101704.50
2023-03-17T03:03:53.419Z,101695.72
2023-03-17T03:09:18.260Z,101697.55
2023-03-17T03:14:41.518Z,101715.20
2023-03-17T03:20:03.901Z,101710.88
2023-03-17T03:25:27.320Z,101702.16
2023-03-17T03:30:50.110Z,101707.47
2023-03-17T03:36:13.900Z,101700.40
2023-03-17T03:41:36.301Z,101708.33
2023-03-17T03:46:58.606Z,101691.64
2023-03-17T03:52:21.503Z,101686.28
2023-03-17T03:57:43.744Z,101682.75
2023-03-17T04:03:06.849Z,101664.25
2023-03-17T04:08:29.078Z,101670.38
2023-03-17T04:13:52.418Z,101665.17
2023-03-17T04:19:15.730Z,101677.44
2023-03-17T04:24:37.985Z,101683.53
2023-03-17T04:30:02.033Z,101692.31
2023-03-17T04:35:27.674Z,101681.86
2023-03-17T04:40:50.353Z,101665.18
2023-03-17T04:46:13.377Z,101652.00
2023-03-17T04:51:37.087Z,101663.42
2023-03-17T04:56:59.394Z,101654.63
2023-03-17T05:02:21.663Z,101658.98
2023-03-17T05:07:45.195Z,101663.31
2023-03-17T05:13:07.519Z,101656.30
2023-03-17T05:18:30.347Z,101671.17
2023-03-17T05:23:54.964Z,101673.77
2023-03-17T05:29:17.606Z,101672.85
2023-03-17T05:34:39.885Z,101668.38
2023-03-17T05:40:02.573Z,101683.25
2023-03-17T05:45:25.393Z,101678.89
2023-03-17T05:50:48.573Z,101674.52
2023-03-17T05:56:10.843Z,101668.38
2023-03-17T06:01:33.434Z,101632.22
2023-03-17T06:06:55.843Z,101630.25
2023-03-17T06:12:18.762Z,101639.86
2023-03-17T06:17:41.177Z,101661.73
2023-03-17T06:23:05.555Z,101664.30
2023-03-17T06:28:27.758Z,101644.77
2023-03-17T06:33:50.170Z,101659.52
2023-03-17T06:39:12.544Z,101647.95
2023-03-17T06:44:34.790Z,101653.99
2023-03-17T06:49:57.089Z,101654.72
2023-03-17T06:55:20.438Z,101658.95
2023-03-17T07:00:43.476Z,101665.83
2023-03-17T07:06:06.355Z,101676.95
2023-03-17T07:11:29.498Z,101669.64
2023-03-17T07:16:51.922Z,101678.24
2023-03-17T07:22:14.880Z,101673.59
2023-03-17T07:27:38.070Z,101673.20
2023-03-17T07:33:02.528Z,101680.77
2023-03-17T07:38:25.569Z,101662.70
2023-03-17T07:43:48.307Z,101677.33
2023-03-17T07:49:11.471Z,101680.47
2023-03-17T07:54:34.304Z,101680.02
2023-03-17T07:59:57.197Z,101679.05
2023-03-17T08:05:19.952Z,101681.77
2023-03-17T08:10:42.319Z,101668.63
2023-03-17T08:16:05.810Z,101669.41
2023-03-17T08:21:28.245Z,101676.30
2023-03-17T08:26:50.699Z,101664.30
2023-03-17T08:32:13.955Z,101656.99
2023-03-17T08:37:36.401Z,101646.75
2023-03-17T08:42:59.942Z,101630.73
2023-03-17T08:48:22.381Z,101611.48
2023-03-17T08:53:46.024Z,101612.36
2023-03-17T08:59:11.646Z,101618.58
2023-03-17T09:04:35.122Z,101610.50
2023-03-17T09:09:57.630Z,101611.59
2023-03-17T09:15:21.535Z,101612.02
2023-03-17T09:20:44.075Z,101604.88
2023-03-17T09:26:07.028Z,101596.20
2023-03-17T09:31:30.744Z,101588.80
2023-03-17T09:36:53.873Z,101583.73
2023-03-17T09:42:33.685Z,101585.39
2023-03-17T09:48:24.453Z,101574.06
2023-03-17T09:54:06.096Z,101554.03
2023-03-17T09:59:47.329Z,101554.45
2023-03-17T10:05:20.124Z,101550.22
2023-03-17T10:11:13.779Z,101534.66
2023-03-17T10:17:02.213Z,101529.64
2023-03-17T10:22:30.289Z,101523.75
2023-03-17T10:28:00.814Z,101516.13
2023-03-17T10:33:24.708Z,101506.69
2023-03-17T10:38:48.340Z,101504.30
2023-03-17T10:44:12.929Z,101484.31
2023-03-17T10:49:38.095Z,101486.19
2023-03-17T10:55:05.847Z,101468.31
2023-03-17T11:00:37.540Z,101461.95
2023-03-17T11:06:14.001Z,101463.83
2023-03-17T11:11:45.209Z,101454.50
2023-03-17T11:17:21.732Z,101446.87
2023-03-17T11:22:52.128Z,101440.41
2023-03-17T11:28:28.634Z,101430.66
2023-03-17T11:34:09.122Z,101440.20
2023-03-17T11:40:20.786Z,101430.53
2023-03-17T11:45:52.783Z,101415.38
2023-03-17T11:51:45.754Z,101399.60
2023-03-17T11:57:23.378Z,101408.75
2023-03-17T12:02:59.348Z,101398.98
2023-03-17T12:08:48.381Z,101378.05
2023-03-17T12:14:34.134Z,101354.37
2023-03-17T12:20:15.181Z,101357.38
2023-03-17T12:25:54.900Z,101363.84
2023-03-17T12:31:29.505Z,101352.70
2023-03-17T12:36:54.238Z,101334.97
2023-03-17T12:42:39.439Z,101333.13
2023-03-17T12:48:09.691Z,101328.58
2023-03-17T12:53:39.088Z,101323.16
2023-03-17T12:59:11.914Z,101317.00
2023-03-17T13:05:01.406Z,101302.53
2023-03-17T13:10:43.102Z,101304.56
2023-03-17T13:16:12.420Z,101277.48
2023-03-17T13:21:39.052Z,101281.45
2023-03-17T13:27:15.501Z,101255.45
2023-03-17T13:32:47.097Z,101273.50
2023-03-17T13:38:31.304Z,101266.82
2023-03-17T13:49:42.270Z,101256.76
2023-03-17T13:55:33.948Z,101246.83
2023-03-17T14:01:04.047Z,101255.88
2023-03-17T14:06:30.048Z,101261.39
2023-03-17T14:11:56.543Z,101270.02
2023-03-17T14:17:32.261Z,101254.54
2023-03-17T14:23:01.954Z,101263.00
2023-03-17T14:28:29.430Z,101247.44
2023-03-17T14:33:53.750Z,101252.52
2023-03-17T14:39:17.805Z,101232.63
2023-03-17T14:44:50.090Z,101221.47
2023-03-17T14:50:22.259Z,101217.58
2023-03-17T14:55:53.821Z,101210.93
2023-03-17T15:01:27.569Z,101213.20
2023-03-17T15:06:56.202Z,101224.47
2023-03-17T15:12:31.198Z,101228.58
2023-03-17T15:17:57.556Z,101218.46
2023-03-17T15:23:30.380Z,101223.17
2023-03-17T15:28:53.365Z,101222.44
2023-03-17T15:34:18.585Z,101220.47
2023-03-17T15:39:41.308Z,101220.06
2023-03-17T15:45:04.563Z,101219.02
2023-03-17T15:50:42.904Z,101215.85
2023-03-17T15:56:06.344Z,101230.00
2023-03-17T16:01:29.245Z,101227.11
2023-03-17T16:07:02.789Z,101219.16
2023-03-17T16:12:31.956Z,101220.03
2023-03-17T16:17:55.476Z,101226.92
2023-03-17T16:23:33.641Z,101233.45
2023-03-17T16:28:57.675Z,101223.17
2023-03-17T16:34:30.173Z,101224.06
2023-03-17T16:39:52.798Z,101227.81
2023-03-17T16:45:16.816Z,101226.28
2023-03-17T16:50:42.517Z,101222.74
2023-03-17T16:56:06.329Z,101222.14
2023-03-17T17:01:34.777Z,101208.60
2023-03-17T17:06:57.512Z,101208.48
2023-03-17T17:12:20.883Z,101207.34
2023-03-17T17:17:44.159Z,101208.02
2023-03-17T17:23:08.876Z,101203.94
2023-03-17T17:28:39.342Z,101202.80
2023-03-17T17:34:01.971Z,101209.95
2023-03-17T17:39:25.096Z,101208.84
2023-03-17T17:44:48.434Z,101222.45
2023-03-17T17:50:12.348Z,101233.61
2023-03-17T17:55:35.970Z,101238.81
2023-03-17T18:00:59.865Z,101227.34
2023-03-17T18:06:22.409Z,101222.42
2023-03-17T18:11:47.280Z,101222.88
2023-03-17T18:17:10.387Z,101225.42
2023-03-17T18:22:34.070Z,101214.91
2023-03-17T18:28:02.111Z,101226.44
2023-03-17T18:33:28.232Z,101217.86
2023-03-17T18:38:53.561Z,101212.45
2023-03-17T18:44:19.784Z,101203.75
2023-03-17T18:49:42.074Z,101194.97
2023-03-17T18:55:10.077Z,101197.92
2023-03-17T19:00:33.283Z,101207.02
2023-03-17T19:05:56.652Z,101204.11
2023-03-17T19:11:21.875Z,101203.95
2023-03-17T19:16:45.257Z,101192.38
2023-03-17T19:22:07.902Z,101194.62
2023-03-17T19:27:32.432Z,101193.24
2023-03-17T19:32:55.005Z,101188.53
2023-03-17T19:38:18.040Z,101180.89
2023-03-17T19:43:41.706Z,101179.05
2023-03-17T19:49:05.079Z,101175.19
2023-03-17T19:54:28.555Z,101163.45
2023-03-17T19:59:51.405Z,101179.83
2023-03-17T20:05:13.872Z,101176.92
2023-03-17T20:10:36.339Z,101170.72
2023-03-17T20:15:58.908Z,101174.58
2023-03-17T20:21:23.445Z,101179.09
2023-03-17T20:26:45.973Z,101172.11
2023-03-17T20:32:08.263Z,101152.83
2023-03-17T20:37:31.165Z,101147.62
2023-03-17T20:42:53.527Z,101151.89
2023-03-17T20:48:17.007Z,101159.02
2023-03-17T20:53:40.228Z,101165.30
2023-03-17T20:59:06.670Z,101161.11
2023-03-17T21:04:29.571Z,101155.20
2023-03-17T21:09:53.919Z,101150.89
2023-03-17T21:15:17.260Z,101145.30
2023-03-17T21:20:39.959Z,101139.31
2023-03-17T21:26:04.228Z,101140.53
2023-03-17T21:31:27.733Z,101133.99
2023-03-17T21:36:50.013Z,101134.50
2023-03-17T21:42:12.908Z,101141.11
2023-03-17T21:47:36.668Z,101131.55
2023-03-17T21:53:00.211Z,101134.50
2023-03-17T21:58:24.046Z,101137.44
2023-03-17T22:03:47.143Z,101131.11
2023-03-17T22:09:11.245Z,101124.33
2023-03-17T22:14:35.345Z,101128.27
2023-03-17T22:19:58.163Z,101137.42
2023-03-17T22:25:23.353Z,101136.14
2023-03-17T22:30:46.924Z,101127.30
2023-03-17T22:36:09.363Z,101126.77
2023-03-17T22:41:35.480Z,101131.59
2023-03-17T22:46:59.073Z,101136.38
2023-03-17T22:52:21.409Z,101125.34
2023-03-17T22:57:43.695Z,101120.12
2023-03-17T23:03:06.916Z,101124.80
2023-03-17T23:08:30.083Z,101120.80
2023-03-17T23:13:53.856Z,101117.45
2023-03-17T23:19:16.963Z,101107.28
2023-03-17T23:24:39.339Z,101111.66
2023-03-17T23:30:02.000Z,101112.53
2023-03-17T23:35:25.482Z,101099.23
2023-03-17T23:40:48.978Z,101095.64
2023-03-17T23:46:14.206Z,101095.16
2023-03-17T23:51:37.126Z,101105.69
2023-03-17T23:57:00.360Z,101102.48
